createdAt,value
2018-09-23T15:59:46.232Z,32.75
2018-09-23T16:02:15.425Z,33.16
2018-09-23T16:04:44.279Z,33.34
2018-09-23T16:07:13.387Z,33.81
2018-09-23T16:09:42.265Z,34.20
2018-09-23T16:12:11.189Z,34.57
2018-09-23T16:14:40.188Z,35.68
2018-09-23T16:17:10.321Z,34.81
2018-09-23T16:19:41.163Z,34.86
2018-09-23T16:22:10.126Z,35.63
2018-09-23T16:24:39.220Z,35.88
2018-09-23T16:27:08.307Z,35.24
2018-09-23T16:29:37.341Z,36.09
2018-09-23T16:32:06.317Z,35.39
2018-09-23T16:34:36.101Z,36.52
2018-09-23T16:37:05.118Z,35.50
2018-09-23T16:39:34.104Z,36.54
2018-09-23T16:42:02.980Z,36.69
2018-09-23T16:44:31.801Z,36.13
2018-09-23T16:47:00.649Z,37.17
2018-09-23T16:49:29.746Z,37.36
2018-09-23T16:51:58.647Z,37.76
2018-09-23T16:54:27.585Z,38.70
2018-09-23T16:56:56.901Z,38.59
2018-09-23T16:59:25.898Z,39.02
2018-09-23T17:01:54.970Z,40.09
2018-09-23T17:04:24.404Z,40.42
2018-09-23T17:06:53.226Z,41.20
2018-09-23T17:09:22.133Z,40.34
2018-09-23T17:11:51.025Z,40.78
2018-09-23T17:14:19.846Z,40.75
2018-09-23T17:16:49.949Z,41.01
2018-09-23T17:19:18.942Z,42.60
2018-09-23T17:21:47.876Z,41.99
2018-09-23T17:24:16.688Z,42.12
2018-09-23T17:26:46.042Z,42.18
2018-09-23T17:29:14.929Z,42.97
2018-09-23T17:31:43.789Z,43.41
2018-09-23T17:34:13.250Z,43.59
2018-09-23T17:36:42.330Z,42.82
2018-09-23T17:39:11.984Z,43.42
2018-09-23T17:41:41.586Z,43.23
2018-09-23T17:44:10.422Z,43.64
2018-09-23T17:46:39.984Z,44.54
2018-09-23T17:49:09.279Z,44.67
2018-09-23T17:51:38.219Z,44.13
2018-09-23T17:54:07.183Z,45.16
2018-09-23T17:56:36.217Z,44.68
2018-09-23T17:59:05.261Z,45.80
2018-09-23T18:01:34.090Z,45.22
2018-09-23T18:04:03.923Z,45.82
2018-09-23T18:06:33.253Z,46.00
2018-09-23T18:09:02.191Z,45.43
2018-09-23T18:11:31.352Z,46.40
2018-09-23T18:14:00.268Z,46.92
2018-09-23T18:16:29.399Z,46.96
2018-09-23T18:18:59.208Z,46.60
2018-09-23T18:21:28.108Z,47.40
2018-09-23T18:23:57.268Z,47.38
2018-09-23T18:26:26.730Z,46.39
2018-09-23T18:28:56.589Z,47.03
2018-09-23T18:31:25.516Z,47.15
2018-09-23T18:33:54.412Z,47.79
2018-09-23T18:36:24.656Z,48.47
2018-09-23T18:38:53.618Z,47.56
2018-09-23T18:41:22.561Z,48.44
2018-09-23T18:43:51.853Z,47.35
2018-09-23T18:46:21.034Z,47.58
2018-09-23T18:48:50.052Z,46.90
2018-09-23T18:51:19.121Z,48.41
2018-09-23T18:53:53.761Z,48.29
2018-09-23T18:56:23.118Z,47.62
2018-09-23T18:58:52.065Z,47.47
2018-09-23T19:01:21.039Z,47.92
2018-09-23T19:03:50.213Z,47.82
2018-09-23T19:06:19.293Z,48.70
2018-09-23T19:08:48.635Z,49.02
2018-09-23T19:11:17.494Z,49.29
2018-09-23T19:13:53.676Z,48.99
2018-09-23T19:16:28.575Z,49.82
2018-09-23T19:18:58.468Z,50.28
2018-09-23T19:21:28.141Z,49.70
2018-09-23T19:23:57.559Z,50.90
2018-09-23T19:26:27.308Z,50.63
2018-09-23T19:28:56.233Z,50.16
2018-09-23T19:31:27.058Z,49.96
2018-09-23T19:33:55.899Z,50.61
2018-09-23T19:36:25.776Z,50.41
2018-09-23T19:38:55.094Z,51.33
2018-09-23T19:41:26.123Z,51.77
2018-09-23T19:43:55.242Z,51.38
2018-09-23T19:46:24.411Z,52.32
2018-09-23T19:48:53.593Z,51.80
2018-09-23T19:51:22.580Z,50.92
2018-09-23T19:53:52.021Z,51.48
2018-09-23T19:56:20.944Z,52.07
2018-09-23T19:58:50.245Z,52.01
2018-09-23T20:01:19.321Z,51.76
2018-09-23T20:03:48.261Z,51.74
2018-09-23T20:06:17.228Z,52.38
2018-09-23T20:08:46.063Z,52.68
2018-09-23T20:11:14.954Z,52.62
2018-09-23T20:13:44.252Z,52.05
2018-09-23T20:16:13.089Z,51.88
2018-09-23T20:18:42.314Z,52.25
2018-09-23T20:21:11.579Z,52.55
2018-09-23T20:23:40.564Z,53.27
2018-09-23T20:26:09.530Z,52.73
2018-09-23T20:28:38.563Z,52.68
2018-09-23T20:31:07.573Z,53.70
2018-09-23T20:33:36.474Z,52.84
2018-09-23T20:36:05.666Z,54.24
2018-09-23T20:38:34.742Z,53.69
2018-09-23T20:41:04.873Z,54.35
2018-09-23T20:43:38.874Z,54.45
2018-09-23T20:46:09.059Z,55.25
2018-09-23T20:48:39.469Z,54.63
2018-09-23T20:51:09.000Z,55.13
2018-09-23T20:53:39.312Z,56.00
2018-09-23T20:56:08.950Z,56.07
2018-09-23T20:58:38.941Z,55.33
2018-09-23T21:01:10.890Z,55.52
2018-09-23T21:03:40.589Z,56.18
2018-09-23T21:06:12.889Z,57.31
2018-09-23T21:08:42.911Z,57.93
2018-09-23T21:11:12.457Z,58.32
2018-09-23T21:13:41.633Z,58.24
2018-09-23T21:16:10.661Z,58.71
2018-09-23T21:18:42.132Z,60.32
2018-09-23T21:21:12.227Z,61.48
2018-09-23T21:23:41.480Z,61.85
2018-09-23T21:26:10.252Z,62.59
2018-09-23T21:28:40.229Z,63.30
2018-09-23T21:31:09.208Z,64.03
2018-09-23T21:36:06.058Z,64.71
2018-09-23T21:38:35.983Z,64.23
2018-09-23T21:41:04.825Z,64.99
2018-09-23T21:43:35.120Z,65.17
2018-09-23T21:46:04.045Z,65.04
2018-09-23T21:48:33.059Z,65.58
2018-09-23T21:51:02.129Z,66.51
2018-09-23T21:53:31.557Z,66.66
2018-09-23T21:56:00.582Z,66.85
2018-09-23T21:58:29.643Z,67.78
2018-09-23T22:00:59.060Z,68.19
2018-09-23T22:03:28.130Z,68.64
2018-09-23T22:05:57.021Z,69.15
2018-09-23T22:08:26.558Z,68.71
2018-09-23T22:10:55.560Z,69.62
2018-09-23T22:13:24.560Z,70.89
2018-09-23T22:15:54.013Z,70.84
2018-09-23T22:18:23.150Z,70.87
2018-09-23T22:20:52.038Z,71.26
2018-09-23T22:23:20.981Z,72.12
2018-09-23T22:25:50.058Z,72.03
2018-09-23T22:28:19.558Z,72.13
2018-09-23T22:30:49.073Z,72.74
2018-09-23T22:33:18.130Z,73.08
2018-09-23T22:35:47.120Z,72.89
2018-09-23T22:38:16.191Z,72.88
2018-09-23T22:40:45.143Z,73.44
2018-09-23T22:43:14.158Z,73.83
2018-09-23T22:45:43.563Z,74.46
2018-09-23T22:48:12.531Z,75.30
2018-09-23T22:50:41.496Z,75.66
2018-09-23T22:53:10.854Z,75.72
2018-09-23T22:55:39.610Z,75.63
2018-09-23T22:58:08.736Z,75.98
2018-09-23T23:00:37.685Z,76.82
2018-09-23T23:03:06.718Z,76.82
2018-09-23T23:05:35.619Z,77.30
2018-09-23T23:08:04.591Z,77.51
2018-09-23T23:10:33.452Z,78.36
2018-09-23T23:13:02.419Z,78.12
2018-09-23T23:15:31.850Z,78.14
2018-09-23T23:18:00.865Z,78.26
2018-09-23T23:20:29.783Z,78.95
2018-09-23T23:22:58.657Z,78.81
2018-09-23T23:25:27.572Z,79.36
2018-09-23T23:27:56.428Z,79.37
2018-09-23T23:30:25.779Z,79.91
2018-09-23T23:32:54.693Z,80.44
2018-09-23T23:35:23.685Z,81.87
2018-09-23T23:37:53.256Z,81.56
2018-09-23T23:40:22.243Z,82.21
2018-09-23T23:42:51.281Z,82.17
2018-09-23T23:45:20.539Z,82.23
2018-09-23T23:50:41.733Z,82.75
2018-09-23T23:53:10.744Z,82.59
2018-09-23T23:55:40.676Z,83.05
2018-09-23T23:58:09.953Z,83.22
